Terminal Aerodrome Forecast
Issued by NWS

Home | Current Version | Previous Version | Text Only | Print | Product List | Glossary On
Versions: 1 2 3 4 5 6 7 8 9 10 11 12 13 14 15 16 17 18 19
260
FTUS43 KFGF 251627 AAB
TAFDVL
TAF AMD
KDVL 251627Z 2516/2612 25015G22KT P6SM -TSRA BKN080CB
     FM252000 09012KT P6SM VCTS OVC030CB
     FM260200 08009KT P6SM BKN040
     FM260500 24005KT P6SM OVC015=

USA.gov is the U.S. government's official web portal to all federal, state and local government web resources and services.